Time;durP1;ratioP1;P1;durP2;ratioP2;P2;SDS_P1;SDS_P2;PMS_P1;PMS_P2;Temp;Humidity;BMP_temperature;BMP_pressure;BME280_temperature;BME280_humidity;BME280_pressure;Samples;Min_cycle;Max_cycle;Signal;HPM_P1;HPM_P2
2024/01/07 00:00:02;;;;;;;1.80;1.05;;;9.70;49.50;;;;;;348444;28;1010;-56
2024/01/07 00:00:13;;;;;;;2.03;1.08;;;9.70;49.50;;;;;;348498;28;1035;-55
2024/01/07 00:00:24;;;;;;;2.25;1.08;;;9.70;49.60;;;;;;348535;28;902;-55
2024/01/07 00:00:34;;;;;;;2.20;1.05;;;9.80;49.70;;;;;;348523;28;1101;-55
2024/01/07 00:00:45;;;;;;;2.10;1.10;;;9.70;49.70;;;;;;348413;28;1007;-56
2024/01/07 00:00:56;;;;;;;2.15;1.10;;;9.80;49.70;;;;;;348535;28;1062;-56
2024/01/07 00:01:10;;;;;;;2.33;1.25;;;9.80;49.70;;;;;;348515;28;964;-55
2024/01/07 00:01:21;;;;;;;2.45;1.23;;;9.80;49.80;;;;;;348537;28;1042;-56
2024/01/07 00:01:32;;;;;;;2.65;1.38;;;9.80;49.60;;;;;;348424;28;940;-57
2024/01/07 00:01:49;;;;;;;2.53;1.30;;;9.80;49.40;;;;;;348536;28;1016;-56
2024/01/07 00:02:00;;;;;;;2.28;1.15;;;9.70;49.40;;;;;;348510;28;1494;-55
2024/01/07 00:02:11;;;;;;;2.10;1.10;;;9.70;49.60;;;;;;348451;28;982;-56
2024/01/07 00:02:21;;;;;;;2.42;1.10;;;9.70;49.60;;;;;;348547;28;952;-55
2024/01/07 00:02:32;;;;;;;3.17;1.10;;;9.70;49.70;;;;;;348432;28;2500;-56
2024/01/07 00:02:43;;;;;;;3.17;1.02;;;9.70;49.80;;;;;;348508;28;1019;-55
2024/01/07 00:02:54;;;;;;;3.10;1.23;;;9.80;49.70;;;;;;348375;28;1035;-55
2024/01/07 00:03:04;;;;;;;2.28;1.30;;;9.70;49.70;;;;;;348534;28;1159;-56
2024/01/07 00:03:16;;;;;;;2.47;1.23;;;9.70;49.90;;;;;;348550;28;1039;-55
2024/01/07 00:03:27;;;;;;;2.92;1.30;;;9.70;49.90;;;;;;348422;28;1161;-54
2024/01/07 00:03:41;;;;;;;2.88;1.30;;;9.70;49.90;;;;;;348527;28;1031;-56
2024/01/07 00:03:52;;;;;;;3.55;1.40;;;9.80;49.70;;;;;;348488;28;1011;-56
2024/01/07 00:04:03;;;;;;;2.90;1.30;;;9.80;49.80;;;;;;348460;28;1010;-56
2024/01/07 00:04:15;;;;;;;2.55;1.20;;;9.80;49.70;;;;;;348440;28;1403;-56
2024/01/07 00:04:26;;;;;;;1.95;1.10;;;9.80;49.70;;;;;;348526;28;1105;-55
2024/01/07 00:04:36;;;;;;;2.35;1.20;;;9.80;49.70;;;;;;348442;28;1051;-55
2024/01/07 00:04:47;;;;;;;2.55;1.30;;;9.80;49.70;;;;;;348503;28;1020;-55
2024/01/07 00:04:58;;;;;;;3.20;1.50;;;9.80;49.60;;;;;;348507;28;975;-54
2024/01/07 00:05:09;;;;;;;3.58;1.63;;;9.80;49.70;;;;;;348449;28;1313;-55
2024/01/07 00:05:20;;;;;;;2.95;1.55;;;9.80;49.90;;;;;;348386;28;1296;-55
2024/01/07 00:05:31;;;;;;;2.58;1.40;;;9.80;49.90;;;;;;348520;28;979;-55
2024/01/07 00:05:41;;;;;;;2.33;1.30;;;9.80;49.80;;;;;;348506;28;1005;-55
2024/01/07 00:05:52;;;;;;;2.40;1.25;;;9.80;49.70;;;;;;348413;28;1268;-55
2024/01/07 00:06:03;;;;;;;2.30;1.17;;;9.90;49.70;;;;;;348380;28;1158;-56
2024/01/07 00:06:14;;;;;;;2.13;1.10;;;9.80;49.60;;;;;;348543;28;927;-56
2024/01/07 00:06:25;;;;;;;2.15;1.20;;;9.90;49.70;;;;;;348442;28;1964;-56
2024/01/07 00:06:35;;;;;;;1.98;1.20;;;9.90;49.70;;;;;;348444;28;1620;-55
2024/01/07 00:06:46;;;;;;;3.00;1.25;;;9.90;49.60;;;;;;348397;28;1225;-56
2024/01/07 00:06:57;;;;;;;3.10;1.30;;;9.90;49.50;;;;;;348561;28;888;-56
2024/01/07 00:07:08;;;;;;;2.53;1.30;;;9.90;49.50;;;;;;348523;28;901;-56
2024/01/07 00:07:20;;;;;;;2.20;1.25;;;9.90;49.40;;;;;;348542;28;1078;-55
2024/01/07 00:07:31;;;;;;;2.30;1.20;;;9.90;49.30;;;;;;348399;28;1190;-55
2024/01/07 00:07:42;;;;;;;2.73;1.27;;;9.90;49.30;;;;;;348513;28;975;-55
2024/01/07 00:07:52;;;;;;;2.40;1.27;;;9.90;49.40;;;;;;348494;28;923;-55
2024/01/07 00:08:03;;;;;;;2.22;1.13;;;10.00;49.40;;;;;;348467;28;890;-56
2024/01/07 00:08:14;;;;;;;1.85;1.10;;;9.90;49.30;;;;;;348447;28;980;-56
2024/01/07 00:08:25;;;;;;;1.95;1.15;;;10.00;49.40;;;;;;348544;28;829;-56
2024/01/07 00:08:36;;;;;;;2.58;1.30;;;10.00;49.30;;;;;;348399;28;1071;-55
2024/01/07 00:08:47;;;;;;;3.00;1.30;;;9.90;49.20;;;;;;348532;28;840;-56
2024/01/07 00:08:58;;;;;;;2.85;1.27;;;10.00;49.20;;;;;;348467;28;999;-54
2024/01/07 00:09:10;;;;;;;2.17;1.10;;;10.00;49.20;;;;;;348366;28;1046;-56
2024/01/07 00:09:21;;;;;;;1.80;1.10;;;10.00;49.10;;;;;;348502;28;1047;-55
2024/01/07 00:09:31;;;;;;;1.87;1.23;;;9.90;49.20;;;;;;348466;28;1023;-55
2024/01/07 00:09:42;;;;;;;2.27;1.40;;;10.00;49.10;;;;;;348423;28;999;-55
2024/01/07 00:09:53;;;;;;;2.28;1.30;;;9.90;49.00;;;;;;348508;28;1074;-55
2024/01/07 00:10:05;;;;;;;2.10;1.10;;;9.90;49.20;;;;;;348432;28;1428;-58
2024/01/07 00:10:15;;;;;;;2.00;1.05;;;9.90;49.30;;;;;;348470;28;879;-55
2024/01/07 00:10:26;;;;;;;2.00;1.10;;;9.90;49.40;;;;;;348480;28;1409;-56
2024/01/07 00:10:37;;;;;;;2.03;1.20;;;9.90;49.40;;;;;;348474;28;1097;-55
2024/01/07 00:10:48;;;;;;;2.75;1.30;;;9.90;49.40;;;;;;348423;28;1067;-56
2024/01/07 00:10:58;;;;;;;3.20;1.30;;;9.90;49.40;;;;;;348519;28;971;-56
2024/01/07 00:11:09;;;;;;;3.25;1.38;;;9.90;49.30;;;;;;348480;28;833;-55
2024/01/07 00:11:20;;;;;;;3.20;1.40;;;9.90;49.20;;;;;;348428;28;1390;-55
2024/01/07 00:11:30;;;;;;;2.90;1.40;;;9.90;49.20;;;;;;348489;28;1043;-56
2024/01/07 00:11:41;;;;;;;2.83;1.40;;;9.90;49.20;;;;;;348492;28;863;-56
2024/01/07 00:11:52;;;;;;;2.47;1.27;;;9.90;49.10;;;;;;348387;28;1039;-55
2024/01/07 00:12:03;;;;;;;2.67;1.30;;;9.90;49.10;;;;;;348550;28;1109;-56
2024/01/07 00:12:14;;;;;;;2.67;1.30;;;9.90;49.20;;;;;;348448;28;1074;-56
2024/01/07 00:12:25;;;;;;;2.22;1.25;;;9.90;49.30;;;;;;348390;28;1153;-56
2024/01/07 00:12:35;;;;;;;1.98;1.20;;;9.90;49.20;;;;;;348490;28;1028;-55
2024/01/07 00:12:48;;;;;;;2.10;1.10;;;9.90;49.10;;;;;;348491;28;967;-56
2024/01/07 00:12:59;;;;;;;2.80;1.23;;;9.90;49.10;;;;;;348348;28;1110;-56
2024/01/07 00:13:10;;;;;;;3.30;1.30;;;9.90;49.20;;;;;;348425;28;1095;-55
2024/01/07 00:13:20;;;;;;;4.05;1.23;;;9.90;49.10;;;;;;348453;28;1169;-55
2024/01/07 00:13:31;;;;;;;3.73;1.20;;;9.90;49.10;;;;;;348443;28;1027;-55
2024/01/07 00:13:42;;;;;;;3.25;1.25;;;10.00;49.20;;;;;;348570;28;821;-55
2024/01/07 00:13:53;;;;;;;2.17;1.27;;;10.00;49.20;;;;;;348496;28;1165;-56
2024/01/07 00:14:03;;;;;;;1.92;1.08;;;9.90;49.20;;;;;;348363;28;1062;-56
2024/01/07 00:14:15;;;;;;;2.13;1.20;;;9.90;49.20;;;;;;348500;28;1012;-55
2024/01/07 00:14:26;;;;;;;2.15;1.20;;;9.90;49.10;;;;;;348435;28;1126;-57
2024/01/07 00:14:37;;;;;;;2.50;1.23;;;9.90;49.00;;;;;;348437;28;921;-56
2024/01/07 00:14:48;;;;;;;2.10;1.10;;;9.90;49.10;;;;;;348452;28;1480;-55
2024/01/07 00:14:58;;;;;;;2.05;1.00;;;9.90;49.10;;;;;;348545;28;1019;-55
2024/01/07 00:15:09;;;;;;;1.92;1.02;;;10.00;49.00;;;;;;348348;28;868;-56
2024/01/07 00:15:20;;;;;;;2.00;1.13;;;10.00;49.00;;;;;;348490;28;1026;-57
2024/01/07 00:15:31;;;;;;;2.20;1.25;;;10.00;49.00;;;;;;348483;28;1318;-56
2024/01/07 00:15:42;;;;;;;2.40;1.35;;;10.00;48.90;;;;;;348449;28;1019;-56
2024/01/07 00:15:55;;;;;;;2.87;1.40;;;10.00;48.90;;;;;;348465;28;1146;-56
2024/01/07 00:16:06;;;;;;;3.17;1.60;;;10.00;48.90;;;;;;348508;28;1046;-56
2024/01/07 00:16:17;;;;;;;3.10;1.42;;;10.00;48.90;;;;;;348361;28;1014;-55
2024/01/07 00:16:27;;;;;;;2.70;1.27;;;10.00;49.00;;;;;;348433;28;1067;-56
2024/01/07 00:16:40;;;;;;;2.22;1.20;;;9.90;49.00;;;;;;348507;28;984;-55
2024/01/07 00:16:50;;;;;;;2.45;1.27;;;10.00;49.00;;;;;;348417;28;1142;-57
2024/01/07 00:17:01;;;;;;;3.05;1.38;;;10.00;49.00;;;;;;348472;28;989;-55
2024/01/07 00:17:12;;;;;;;2.73;1.30;;;10.00;49.10;;;;;;348476;28;1078;-56
2024/01/07 00:17:23;;;;;;;2.75;1.40;;;10.00;49.10;;;;;;348510;28;1011;-55
2024/01/07 00:17:34;;;;;;;2.90;1.50;;;10.00;49.00;;;;;;348424;28;1142;-55
2024/01/07 00:17:45;;;;;;;3.03;1.60;;;10.00;49.00;;;;;;348531;28;903;-57
2024/01/07 00:17:55;;;;;;;3.30;1.60;;;10.00;48.90;;;;;;348501;28;1016;-57
2024/01/07 00:18:06;;;;;;;2.60;1.42;;;10.00;48.90;;;;;;348511;28;900;-56
2024/01/07 00:18:17;;;;;;;2.33;1.33;;;10.00;48.90;;;;;;348385;28;956;-55
2024/01/07 00:18:28;;;;;;;2.30;1.30;;;10.00;49.00;;;;;;348520;28;1065;-56
2024/01/07 00:18:39;;;;;;;2.60;1.40;;;10.00;49.00;;;;;;348518;28;886;-56
2024/01/07 00:18:50;;;;;;;3.03;1.50;;;10.00;48.90;;;;;;348507;28;1015;-55
2024/01/07 00:19:00;;;;;;;2.97;1.50;;;10.00;48.90;;;;;;348353;28;1410;-54
2024/01/07 00:19:11;;;;;;;2.65;1.48;;;10.00;48.90;;;;;;348431;28;1103;-56
2024/01/07 00:19:22;;;;;;;2.58;1.58;;;10.00;48.80;;;;;;348452;28;1008;-55
2024/01/07 00:19:35;;;;;;;3.72;2.33;;;10.00;48.80;;;;;;348478;28;876;-56
2024/01/07 00:19:46;;;;;;;5.72;3.75;;;10.00;48.80;;;;;;348442;28;1102;-54
2024/01/07 00:19:56;;;;;;;6.33;4.87;;;10.00;48.90;;;;;;348519;28;983;-55
2024/01/07 00:20:08;;;;;;;8.30;7.20;;;10.00;48.80;;;;;;348495;28;856;-56
2024/01/07 00:20:19;;;;;;;10.77;9.68;;;10.00;48.80;;;;;;348473;28;1177;-55
2024/01/07 00:20:30;;;;;;;13.38;12.00;;;10.00;48.80;;;;;;348423;28;1068;-56
2024/01/07 00:20:40;;;;;;;14.18;12.68;;;10.00;48.80;;;;;;348452;28;1078;-56
2024/01/07 00:20:51;;;;;;;13.10;11.73;;;10.00;48.70;;;;;;348505;28;948;-56
2024/01/07 00:21:02;;;;;;;9.57;8.65;;;9.90;48.70;;;;;;348474;28;1011;-55
2024/01/07 00:21:13;;;;;;;5.50;4.90;;;10.00;48.70;;;;;;348387;28;968;-57
2024/01/07 00:21:24;;;;;;;4.28;3.17;;;10.00;48.70;;;;;;348407;28;1398;-55
2024/01/07 00:21:35;;;;;;;4.38;2.60;;;10.00;48.70;;;;;;348493;28;1070;-56
2024/01/07 00:21:45;;;;;;;3.47;2.05;;;10.00;48.60;;;;;;348463;28;991;-55
2024/01/07 00:21:56;;;;;;;4.22;2.00;;;10.00;48.60;;;;;;348424;28;864;-55
2024/01/07 00:22:07;;;;;;;4.47;2.00;;;10.00;48.70;;;;;;348443;28;1428;-56
2024/01/07 00:22:18;;;;;;;4.47;1.88;;;10.00;48.80;;;;;;348500;28;1042;-56
2024/01/07 00:22:28;;;;;;;3.42;1.63;;;10.00;48.80;;;;;;348489;28;865;-57
2024/01/07 00:22:39;;;;;;;2.78;1.35;;;10.00;48.70;;;;;;348421;28;1095;-56
2024/01/07 00:22:50;;;;;;;2.03;1.20;;;10.00;48.70;;;;;;348437;28;1551;-56
2024/01/07 00:23:01;;;;;;;2.13;1.20;;;10.00;48.70;;;;;;348505;28;821;-56
2024/01/07 00:23:12;;;;;;;2.03;1.17;;;10.00;48.70;;;;;;348462;28;876;-56
2024/01/07 00:23:22;;;;;;;2.07;1.10;;;10.00;48.70;;;;;;348377;28;1175;-56
2024/01/07 00:23:33;;;;;;;1.73;1.10;;;10.00;48.70;;;;;;348417;28;1419;-57
2024/01/07 00:23:44;;;;;;;1.83;1.10;;;10.00;48.70;;;;;;348466;28;1099;-56
2024/01/07 00:23:55;;;;;;;2.25;1.27;;;10.00;48.70;;;;;;348404;28;1362;-57
2024/01/07 00:24:06;;;;;;;2.50;1.30;;;10.00;48.70;;;;;;348451;28;1053;-57
2024/01/07 00:24:16;;;;;;;2.28;1.23;;;10.00;48.60;;;;;;348472;28;1067;-57
2024/01/07 00:24:28;;;;;;;1.90;1.00;;;10.00;48.60;;;;;;348454;28;1015;-57
2024/01/07 00:24:39;;;;;;;2.08;1.00;;;10.00;48.60;;;;;;348438;28;1050;-56
2024/01/07 00:24:50;;;;;;;3.00;1.20;;;10.00;48.60;;;;;;348342;28;1948;-56
2024/01/07 00:25:01;;;;;;;3.30;1.30;;;10.00;48.70;;;;;;348493;28;1819;-56
2024/01/07 00:25:11;;;;;;;3.15;1.35;;;10.00;48.70;;;;;;348443;28;972;-55
2024/01/07 00:25:22;;;;;;;2.67;1.30;;;10.00;48.70;;;;;;348548;28;845;-56
2024/01/07 00:25:33;;;;;;;2.70;1.20;;;10.00;48.80;;;;;;348365;28;1003;-56
2024/01/07 00:25:44;;;;;;;2.67;1.20;;;10.00;48.70;;;;;;348453;28;1012;-57
2024/01/07 00:25:54;;;;;;;2.53;1.20;;;10.00;48.70;;;;;;348465;28;960;-56
2024/01/07 00:26:06;;;;;;;2.67;1.23;;;10.00;48.70;;;;;;348485;28;916;-56
2024/01/07 00:26:17;;;;;;;2.50;1.20;;;10.00;48.70;;;;;;348389;28;1000;-56
2024/01/07 00:26:27;;;;;;;2.45;1.15;;;10.00;48.70;;;;;;348452;28;1185;-56
2024/01/07 00:26:38;;;;;;;2.75;1.33;;;10.00;48.70;;;;;;348420;28;1208;-55
2024/01/07 00:26:49;;;;;;;2.83;1.50;;;10.00;48.60;;;;;;348505;28;841;-59
2024/01/07 00:27:00;;;;;;;2.72;1.50;;;10.00;48.60;;;;;;348409;28;1059;-57
2024/01/07 00:27:10;;;;;;;2.20;1.23;;;10.00;48.70;;;;;;348494;28;951;-57
2024/01/07 00:27:21;;;;;;;2.03;1.15;;;10.00;48.70;;;;;;348460;28;1456;-56
2024/01/07 00:27:32;;;;;;;2.10;1.20;;;10.00;48.70;;;;;;348454;28;963;-55
2024/01/07 00:27:43;;;;;;;2.30;1.33;;;10.00;48.60;;;;;;348412;28;887;-57
2024/01/07 00:27:55;;;;;;;3.30;1.50;;;10.00;48.60;;;;;;348479;28;2425;-55
2024/01/07 00:28:06;;;;;;;3.30;1.45;;;10.00;48.70;;;;;;348450;28;1538;-58
2024/01/07 00:28:16;;;;;;;2.83;1.30;;;10.00;48.70;;;;;;348476;28;919;-57
2024/01/07 00:28:27;;;;;;;2.13;1.20;;;10.00;48.70;;;;;;348362;28;1102;-56
2024/01/07 00:28:38;;;;;;;2.33;1.30;;;10.00;48.80;;;;;;348476;28;1534;-56
2024/01/07 00:28:49;;;;;;;2.38;1.40;;;10.00;48.80;;;;;;348483;28;1035;-57
2024/01/07 00:28:59;;;;;;;2.75;1.88;;;10.00;48.80;;;;;;348447;28;1016;-57
2024/01/07 00:29:10;;;;;;;3.55;2.30;;;10.00;48.80;;;;;;348363;28;1092;-56
2024/01/07 00:29:21;;;;;;;3.92;2.65;;;10.00;48.70;;;;;;348475;28;1070;-56
2024/01/07 00:29:34;;;;;;;3.63;2.38;;;10.00;48.70;;;;;;348410;28;1158;-57
2024/01/07 00:29:45;;;;;;;3.90;2.50;;;10.00;48.80;;;;;;348434;28;1111;-56
2024/01/07 00:29:56;;;;;;;3.55;2.17;;;10.00;48.80;;;;;;348390;28;1023;-57
2024/01/07 00:30:07;;;;;;;3.00;1.90;;;10.00;48.80;;;;;;348404;28;1558;-56
2024/01/07 00:30:19;;;;;;;2.88;1.88;;;10.00;48.80;;;;;;348430;28;1137;-57
2024/01/07 00:30:29;;;;;;;3.15;1.98;;;10.00;48.70;;;;;;348440;28;1064;-55
2024/01/07 00:30:40;;;;;;;2.95;1.77;;;10.00;48.70;;;;;;348438;28;906;-56
2024/01/07 00:30:51;;;;;;;3.10;1.73;;;10.00;48.70;;;;;;348472;28;1034;-57
2024/01/07 00:31:02;;;;;;;3.25;1.60;;;10.00;48.70;;;;;;348477;28;1019;-55
2024/01/07 00:31:13;;;;;;;4.30;1.67;;;10.00;48.60;;;;;;348455;28;790;-56
2024/01/07 00:31:23;;;;;;;3.95;1.73;;;10.00;48.70;;;;;;348353;28;980;-56
2024/01/07 00:31:34;;;;;;;4.23;1.83;;;10.00;48.70;;;;;;348498;28;1792;-55
2024/01/07 00:31:45;;;;;;;3.22;1.80;;;10.00;48.70;;;;;;348488;28;967;-55
2024/01/07 00:31:56;;;;;;;3.65;2.15;;;10.00;48.70;;;;;;348500;28;872;-56
2024/01/07 00:32:06;;;;;;;4.25;2.70;;;10.00;48.80;;;;;;348318;28;1563;-56
2024/01/07 00:32:17;;;;;;;5.00;3.10;;;10.00;48.70;;;;;;348501;28;1070;-55
2024/01/07 00:32:28;;;;;;;5.33;3.27;;;10.00;48.70;;;;;;348454;28;1026;-57
2024/01/07 00:32:39;;;;;;;4.60;2.83;;;10.00;48.70;;;;;;348479;28;968;-57
2024/01/07 00:32:51;;;;;;;3.67;2.45;;;10.00;48.70;;;;;;348360;28;1348;-56
2024/01/07 00:33:01;;;;;;;4.53;2.40;;;10.00;48.70;;;;;;348410;28;2489;-55
2024/01/07 00:33:12;;;;;;;4.50;2.47;;;10.00;48.70;;;;;;348367;28;817;-55
2024/01/07 00:33:23;;;;;;;4.90;2.70;;;10.00;48.70;;;;;;348494;28;904;-55
2024/01/07 00:33:34;;;;;;;4.40;2.78;;;10.00;48.70;;;;;;348496;28;813;-55
2024/01/07 00:33:45;;;;;;;4.25;2.70;;;10.00;48.70;;;;;;348395;28;1122;-54
2024/01/07 00:33:56;;;;;;;3.67;2.50;;;10.00;48.70;;;;;;348479;28;1469;-57
2024/01/07 00:34:07;;;;;;;3.75;2.40;;;10.00;48.70;;;;;;348455;28;856;-56
2024/01/07 00:34:18;;;;;;;4.40;2.53;;;9.90;48.70;;;;;;348350;28;1642;-55
2024/01/07 00:34:28;;;;;;;4.50;2.67;;;10.00;48.70;;;;;;348451;28;1210;-55
2024/01/07 00:34:39;;;;;;;4.13;2.47;;;10.00;48.70;;;;;;348537;28;840;-55
2024/01/07 00:34:50;;;;;;;3.13;1.98;;;10.00;48.70;;;;;;348395;28;987;-56
2024/01/07 00:35:01;;;;;;;2.60;1.55;;;10.00;48.70;;;;;;348446;28;1019;-57
2024/01/07 00:35:11;;;;;;;2.55;1.40;;;10.00;48.70;;;;;;348448;28;1055;-57
2024/01/07 00:35:22;;;;;;;2.90;1.50;;;10.00;48.70;;;;;;348379;28;1182;-57
2024/01/07 00:35:33;;;;;;;3.43;1.60;;;10.00;48.70;;;;;;348550;28;802;-56
2024/01/07 00:35:44;;;;;;;4.05;1.90;;;10.00;48.70;;;;;;348497;28;805;-56
2024/01/07 00:35:55;;;;;;;4.35;2.00;;;10.00;48.70;;;;;;348331;28;1419;-56
2024/01/07 00:36:06;;;;;;;3.55;1.88;;;10.00;48.70;;;;;;348424;28;1098;-57
2024/01/07 00:36:17;;;;;;;2.83;1.63;;;9.90;48.70;;;;;;348497;28;1049;-55
2024/01/07 00:36:28;;;;;;;2.70;1.60;;;10.00;48.80;;;;;;348350;28;2587;-56
2024/01/07 00:36:39;;;;;;;2.58;1.42;;;9.90;48.80;;;;;;348470;28;812;-55
2024/01/07 00:36:49;;;;;;;2.58;1.50;;;9.90;48.80;;;;;;348463;28;959;-56
2024/01/07 00:37:00;;;;;;;2.67;1.60;;;9.90;48.90;;;;;;348441;28;1020;-56
2024/01/07 00:37:11;;;;;;;2.58;1.60;;;9.90;49.00;;;;;;348450;28;979;-55
2024/01/07 00:37:22;;;;;;;3.72;1.80;;;9.90;48.90;;;;;;348446;28;1239;-56
2024/01/07 00:37:34;;;;;;;3.80;1.90;;;9.90;48.90;;;;;;348486;28;813;-56
2024/01/07 00:37:45;;;;;;;3.63;1.80;;;9.90;49.00;;;;;;348381;28;963;-55
2024/01/07 00:37:56;;;;;;;2.88;1.65;;;9.90;49.00;;;;;;348480;28;944;-54
2024/01/07 00:38:07;;;;;;;3.33;1.60;;;9.90;49.00;;;;;;348439;28;1333;-55
2024/01/07 00:38:17;;;;;;;3.35;1.60;;;9.90;49.10;;;;;;348442;28;878;-54
2024/01/07 00:38:28;;;;;;;4.47;1.80;;;9.90;49.10;;;;;;348438;28;1577;-56
2024/01/07 00:38:39;;;;;;;4.15;1.90;;;9.90;49.10;;;;;;348464;28;1027;-56
2024/01/07 00:38:50;;;;;;;3.80;1.98;;;9.90;49.10;;;;;;348432;28;1078;-56
2024/01/07 00:39:00;;;;;;;3.58;1.73;;;9.90;49.10;;;;;;348412;28;934;-57
2024/01/07 00:39:11;;;;;;;4.03;1.70;;;9.90;49.10;;;;;;348303;28;1500;-55
2024/01/07 00:39:22;;;;;;;3.70;1.60;;;9.90;49.10;;;;;;348464;28;975;-55
2024/01/07 00:39:33;;;;;;;3.10;1.50;;;9.90;49.00;;;;;;348500;28;878;-56
2024/01/07 00:39:45;;;;;;;3.00;1.58;;;9.90;49.00;;;;;;348374;28;1126;-55
2024/01/07 00:39:56;;;;;;;3.45;1.85;;;9.90;49.00;;;;;;348428;28;1114;-56
2024/01/07 00:40:08;;;;;;;3.70;2.00;;;9.90;49.00;;;;;;348410;28;976;-55
2024/01/07 00:40:18;;;;;;;3.38;2.00;;;9.90;49.00;;;;;;348346;28;1431;-55
2024/01/07 00:40:29;;;;;;;3.25;1.80;;;9.90;49.00;;;;;;348469;28;1086;-55
2024/01/07 00:40:40;;;;;;;2.88;1.70;;;9.90;49.00;;;;;;348476;28;972;-56
2024/01/07 00:40:51;;;;;;;2.80;1.57;;;9.90;49.00;;;;;;348393;28;1048;-56
2024/01/07 00:41:01;;;;;;;2.70;1.70;;;9.90;49.10;;;;;;348474;28;980;-55
2024/01/07 00:41:12;;;;;;;2.75;1.65;;;9.90;49.20;;;;;;348407;28;1115;-55
2024/01/07 00:41:24;;;;;;;2.72;1.70;;;9.90;49.40;;;;;;348431;28;956;-56
2024/01/07 00:41:35;;;;;;;3.08;1.50;;;9.90;49.40;;;;;;348424;28;926;-55
2024/01/07 00:41:45;;;;;;;2.97;1.35;;;9.90;49.60;;;;;;348438;28;1094;-56
2024/01/07 00:41:56;;;;;;;3.10;1.33;;;9.80;49.50;;;;;;348440;28;845;-56
2024/01/07 00:42:07;;;;;;;3.40;1.60;;;9.90;49.50;;;;;;348200;28;1319;-55
2024/01/07 00:42:18;;;;;;;3.80;1.80;;;9.90;49.40;;;;;;348449;28;975;-55
2024/01/07 00:42:28;;;;;;;3.22;1.60;;;9.90;49.40;;;;;;348478;28;822;-56
2024/01/07 00:42:39;;;;;;;2.70;1.52;;;9.80;49.40;;;;;;348506;28;860;-55
2024/01/07 00:42:51;;;;;;;2.13;1.27;;;9.80;49.40;;;;;;348398;28;978;-55
2024/01/07 00:43:01;;;;;;;2.22;1.27;;;9.80;49.30;;;;;;348495;28;842;-56
2024/01/07 00:43:12;;;;;;;2.00;1.27;;;9.90;49.30;;;;;;348353;28;1134;-56
2024/01/07 00:43:23;;;;;;;2.10;1.40;;;9.80;49.30;;;;;;348436;28;1165;-55
2024/01/07 00:43:34;;;;;;;2.10;1.37;;;9.80;49.30;;;;;;348371;28;1015;-55
2024/01/07 00:43:44;;;;;;;2.65;1.33;;;9.80;49.40;;;;;;348468;28;1004;-56
2024/01/07 00:43:55;;;;;;;2.80;1.40;;;9.80;49.40;;;;;;348359;28;1091;-56
2024/01/07 00:44:06;;;;;;;3.45;1.35;;;9.80;49.40;;;;;;348443;28;853;-56
2024/01/07 00:44:17;;;;;;;3.30;1.30;;;9.90;49.40;;;;;;348371;28;1095;-56
2024/01/07 00:44:27;;;;;;;3.33;1.20;;;9.90;49.30;;;;;;348488;28;980;-55
2024/01/07 00:44:38;;;;;;;2.80;1.40;;;9.80;49.30;;;;;;348408;28;964;-56
2024/01/07 00:44:49;;;;;;;2.45;1.50;;;9.80;49.30;;;;;;348497;28;876;-56
2024/01/07 00:45:00;;;;;;;2.70;1.60;;;9.80;49.40;;;;;;348357;28;1067;-55
2024/01/07 00:45:10;;;;;;;2.70;1.50;;;9.80;49.40;;;;;;348436;28;947;-55
2024/01/07 00:45:21;;;;;;;3.55;1.60;;;9.80;49.40;;;;;;348282;28;1482;-55
2024/01/07 00:45:32;;;;;;;3.28;1.50;;;9.80;49.40;;;;;;348432;28;1098;-54
2024/01/07 00:45:43;;;;;;;3.10;1.50;;;9.80;49.40;;;;;;348408;28;1015;-55
2024/01/07 00:45:54;;;;;;;2.88;1.50;;;9.80;49.40;;;;;;348478;28;837;-55
2024/01/07 00:46:04;;;;;;;3.22;1.50;;;9.80;49.40;;;;;;348337;28;1014;-55
2024/01/07 00:46:15;;;;;;;3.03;1.47;;;9.80;49.40;;;;;;348453;28;967;-55
2024/01/07 00:46:26;;;;;;;3.13;1.55;;;9.90;49.40;;;;;;348282;28;1955;-54
2024/01/07 00:46:36;;;;;;;2.47;1.48;;;9.80;49.40;;;;;;348424;28;1178;-55
2024/01/07 00:46:47;;;;;;;3.15;1.50;;;9.80;49.50;;;;;;348388;28;1075;-55
2024/01/07 00:46:58;;;;;;;3.13;1.53;;;9.80;49.50;;;;;;348460;28;1039;-56
2024/01/07 00:47:09;;;;;;;3.23;1.70;;;9.80;49.50;;;;;;348350;28;1010;-55
2024/01/07 00:47:19;;;;;;;2.58;1.60;;;9.80;49.50;;;;;;348466;28;963;-56
2024/01/07 00:47:30;;;;;;;2.20;1.45;;;9.90;49.50;;;;;;348493;28;872;-55
2024/01/07 00:47:41;;;;;;;2.13;1.40;;;9.90;49.50;;;;;;348386;28;1004;-56
2024/01/07 00:47:54;;;;;;;2.40;1.50;;;9.80;49.50;;;;;;348445;28;1087;-55
2024/01/07 00:48:05;;;;;;;2.50;1.40;;;9.80;49.50;;;;;;348451;28;897;-55
2024/01/07 00:48:16;;;;;;;2.97;1.40;;;9.90;49.50;;;;;;348367;28;1442;-55
2024/01/07 00:48:27;;;;;;;3.13;1.40;;;9.90;49.50;;;;;;348413;28;1253;-55
2024/01/07 00:48:38;;;;;;;3.83;1.67;;;9.80;49.60;;;;;;348445;28;1074;-55
2024/01/07 00:48:49;;;;;;;3.60;1.67;;;9.80;49.60;;;;;;348346;28;1058;-56
2024/01/07 00:48:59;;;;;;;3.67;1.80;;;9.90;49.60;;;;;;348406;28;1078;-55
2024/01/07 00:49:10;;;;;;;3.20;1.50;;;9.80;49.60;;;;;;348385;28;1102;-56
2024/01/07 00:49:21;;;;;;;3.65;1.50;;;9.80;49.60;;;;;;348383;28;1019;-56
2024/01/07 00:49:32;;;;;;;3.65;1.60;;;9.90;49.60;;;;;;348474;28;861;-57
2024/01/07 00:49:42;;;;;;;3.42;1.60;;;9.80;49.60;;;;;;348461;28;1003;-55
2024/01/07 00:49:53;;;;;;;3.17;1.50;;;9.80;49.60;;;;;;348389;28;1027;-56
2024/01/07 00:50:05;;;;;;;2.88;1.50;;;9.90;49.60;;;;;;348425;28;1229;-56
2024/01/07 00:50:16;;;;;;;3.28;1.45;;;9.80;49.50;;;;;;348433;28;1098;-56
2024/01/07 00:50:26;;;;;;;3.15;1.48;;;9.90;49.50;;;;;;348396;28;1005;-56
2024/01/07 00:50:37;;;;;;;3.58;1.38;;;9.80;49.50;;;;;;348411;28;857;-55
2024/01/07 00:50:48;;;;;;;3.20;1.40;;;9.80;49.50;;;;;;348404;28;1587;-54
2024/01/07 00:50:58;;;;;;;3.40;1.30;;;9.80;49.60;;;;;;348378;28;1536;-55
2024/01/07 00:51:09;;;;;;;2.75;1.33;;;9.90;49.60;;;;;;348426;28;1619;-57
2024/01/07 00:51:20;;;;;;;2.88;1.40;;;9.80;49.60;;;;;;348439;28;1037;-56
2024/01/07 00:51:31;;;;;;;3.10;1.53;;;9.80;49.60;;;;;;348423;28;947;-57
2024/01/07 00:51:41;;;;;;;3.20;1.60;;;9.90;49.60;;;;;;348477;28;888;-56
2024/01/07 00:51:52;;;;;;;3.55;1.60;;;9.80;49.60;;;;;;348453;28;1001;-56
2024/01/07 00:52:03;;;;;;;3.20;1.60;;;9.90;49.60;;;;;;348409;28;1980;-57
2024/01/07 00:52:14;;;;;;;2.83;1.50;;;9.80;49.50;;;;;;348446;28;1014;-55
2024/01/07 00:52:25;;;;;;;3.30;1.40;;;9.80;49.50;;;;;;348423;28;883;-55
2024/01/07 00:52:38;;;;;;;3.63;1.50;;;9.80;49.50;;;;;;348244;28;1646;-55
2024/01/07 00:52:49;;;;;;;3.53;1.75;;;9.80;49.50;;;;;;348350;28;1031;-55
2024/01/07 00:53:00;;;;;;;3.40;1.75;;;9.80;49.60;;;;;;348461;28;816;-55
2024/01/07 00:53:11;;;;;;;2.63;1.60;;;9.80;49.60;;;;;;348423;28;1014;-55
2024/01/07 00:53:21;;;;;;;2.20;1.40;;;9.80;49.60;;;;;;348438;28;1511;-55
2024/01/07 00:53:32;;;;;;;2.40;1.43;;;9.80;49.60;;;;;;348370;28;1867;-55
2024/01/07 00:53:44;;;;;;;2.33;1.40;;;9.90;49.60;;;;;;348405;28;1007;-55
2024/01/07 00:53:54;;;;;;;2.30;1.40;;;9.80;49.60;;;;;;348443;28;936;-56
2024/01/07 00:54:05;;;;;;;2.28;1.50;;;9.80;49.70;;;;;;348396;28;1515;-56
2024/01/07 00:54:16;;;;;;;2.55;1.58;;;9.90;49.70;;;;;;348334;28;1215;-56
2024/01/07 00:54:27;;;;;;;3.43;1.60;;;9.80;49.70;;;;;;348431;28;1086;-56
2024/01/07 00:54:37;;;;;;;3.80;1.67;;;9.80;49.70;;;;;;348450;28;1019;-55
2024/01/07 00:54:48;;;;;;;3.78;1.45;;;9.80;49.70;;;;;;348435;28;975;-55
2024/01/07 00:55:00;;;;;;;3.35;1.45;;;9.80;49.70;;;;;;348322;28;1375;-55
2024/01/07 00:55:11;;;;;;;2.70;1.40;;;9.90;49.70;;;;;;348422;28;1181;-54
2024/01/07 00:55:23;;;;;;;2.28;1.45;;;9.80;49.80;;;;;;348465;28;824;-56
2024/01/07 00:55:35;;;;;;;2.53;1.45;;;9.80;49.80;;;;;;348447;28;1007;-56
2024/01/07 00:55:46;;;;;;;3.22;1.52;;;9.90;49.80;;;;;;348342;28;1137;-55
2024/01/07 00:55:57;;;;;;;3.33;1.57;;;9.80;49.80;;;;;;348455;28;1018;-55
2024/01/07 00:56:08;;;;;;;2.83;1.45;;;9.80;49.70;;;;;;348389;28;1670;-56
2024/01/07 00:56:18;;;;;;;2.77;1.40;;;9.80;49.80;;;;;;348456;28;1506;-55
2024/01/07 00:56:30;;;;;;;2.80;1.50;;;9.80;49.90;;;;;;348388;28;1038;-56
2024/01/07 00:56:41;;;;;;;2.58;1.60;;;9.80;49.80;;;;;;348439;28;1484;-56
2024/01/07 00:56:51;;;;;;;2.38;1.40;;;9.80;49.80;;;;;;348496;28;919;-56
2024/01/07 00:57:03;;;;;;;2.37;1.40;;;9.80;49.90;;;;;;348416;28;1394;-55
2024/01/07 00:57:13;;;;;;;2.40;1.30;;;9.80;49.80;;;;;;348342;28;1463;-56
2024/01/07 00:57:24;;;;;;;2.17;1.27;;;9.80;49.90;;;;;;348435;28;1011;-57
2024/01/07 00:57:35;;;;;;;2.13;1.33;;;9.80;50.00;;;;;;348469;28;860;-55
2024/01/07 00:57:45;;;;;;;3.28;1.58;;;9.80;50.00;;;;;;348419;28;1082;-56
2024/01/07 00:57:56;;;;;;;3.38;1.67;;;9.80;49.90;;;;;;348399;28;1046;-55
2024/01/07 00:58:07;;;;;;;2.53;1.43;;;9.80;49.90;;;;;;348443;28;1242;-56
2024/01/07 00:58:18;;;;;;;2.10;1.40;;;9.80;49.90;;;;;;348391;28;1083;-56
2024/01/07 00:58:28;;;;;;;2.22;1.30;;;9.80;49.90;;;;;;348419;28;1018;-56
2024/01/07 00:58:39;;;;;;;2.15;1.33;;;9.80;49.90;;;;;;348441;28;1082;-56
2024/01/07 00:58:50;;;;;;;2.28;1.33;;;9.80;49.90;;;;;;348431;28;1090;-56
2024/01/07 00:59:01;;;;;;;2.70;1.50;;;9.80;50.00;;;;;;348458;28;895;-56
2024/01/07 00:59:12;;;;;;;2.88;1.60;;;9.80;50.00;;;;;;348365;28;1449;-57